sensor_id;sensor_type;location;lat;lon;timestamp;pressure;altitude;pressure_sealevel;temperature;humidity
6524;BME280;3295;38.928;-77.052;2023-02-11T00:01:23;101278.84;;;14.72;41.76
6524;BME280;3295;38.928;-77.052;2023-02-11T00:03:52;101286.69;;;14.75;41.90
6524;BME280;3295;38.928;-77.052;2023-02-11T00:06:20;101286.78;;;14.78;41.69
6524;BME280;3295;38.928;-77.052;2023-02-11T00:08:48;101306.16;;;14.70;42.29
6524;BME280;3295;38.928;-77.052;2023-02-11T00:11:17;101332.78;;;14.72;42.54
6524;BME280;3295;38.928;-77.052;2023-02-11T00:13:47;101321.63;;;14.72;42.47
6524;BME280;3295;38.928;-77.052;2023-02-11T00:16:18;101318.81;;;14.45;42.56
6524;BME280;3295;38.928;-77.052;2023-02-11T00:18:47;101309.44;;;14.26;42.96
6524;BME280;3295;38.928;-77.052;2023-02-11T00:21:16;101318.94;;;14.29;43.07
6524;BME280;3295;38.928;-77.052;2023-02-11T00:23:44;101320.91;;;14.34;43.08
6524;BME280;3295;38.928;-77.052;2023-02-11T00:26:13;101327.38;;;14.26;42.92
6524;BME280;3295;38.928;-77.052;2023-02-11T00:28:41;101342.31;;;14.35;43.12
6524;BME280;3295;38.928;-77.052;2023-02-11T00:31:11;101347.84;;;14.24;43.39
6524;BME280;3295;38.928;-77.052;2023-02-11T00:33:39;101377.28;;;14.13;42.93
6524;BME280;3295;38.928;-77.052;2023-02-11T00:36:10;101377.44;;;14.16;43.44
6524;BME280;3295;38.928;-77.052;2023-02-11T00:38:41;101381.75;;;13.98;43.72
6524;BME280;3295;38.928;-77.052;2023-02-11T00:41:09;101390.78;;;14.09;43.54
6524;BME280;3295;38.928;-77.052;2023-02-11T00:43:38;101403.81;;;13.95;43.60
6524;BME280;3295;38.928;-77.052;2023-02-11T00:46:06;101388.84;;;13.84;43.96
6524;BME280;3295;38.928;-77.052;2023-02-11T00:48:36;101379.75;;;13.91;44.04
6524;BME280;3295;38.928;-77.052;2023-02-11T00:51:04;101375.00;;;13.81;44.06
6524;BME280;3295;38.928;-77.052;2023-02-11T00:53:33;101375.06;;;13.63;44.45
6524;BME280;3295;38.928;-77.052;2023-02-11T00:56:02;101380.66;;;13.74;44.30
6524;BME280;3295;38.928;-77.052;2023-02-11T00:58:30;101394.69;;;13.82;44.49
6524;BME280;3295;38.928;-77.052;2023-02-11T01:00:58;101398.91;;;13.80;44.08
6524;BME280;3295;38.928;-77.052;2023-02-11T01:03:26;101395.66;;;13.84;44.35
6524;BME280;3295;38.928;-77.052;2023-02-11T01:05:56;101378.66;;;13.86;44.16
6524;BME280;3295;38.928;-77.052;2023-02-11T01:08:24;101373.78;;;13.73;43.99
6524;BME280;3295;38.928;-77.052;2023-02-11T01:10:56;101390.22;;;13.59;44.45
6524;BME280;3295;38.928;-77.052;2023-02-11T01:13:24;101381.56;;;13.57;44.42
6524;BME280;3295;38.928;-77.052;2023-02-11T01:15:53;101396.56;;;13.67;43.88
6524;BME280;3295;38.928;-77.052;2023-02-11T01:18:22;101404.44;;;13.52;44.02
6524;BME280;3295;38.928;-77.052;2023-02-11T01:20:50;101414.72;;;13.34;44.21
6524;BME280;3295;38.928;-77.052;2023-02-11T01:23:20;101424.38;;;13.22;44.30
6524;BME280;3295;38.928;-77.052;2023-02-11T01:25:48;101431.75;;;13.16;44.12
6524;BME280;3295;38.928;-77.052;2023-02-11T01:28:18;101438.66;;;13.01;44.36
6524;BME280;3295;38.928;-77.052;2023-02-11T01:30:46;101440.56;;;13.05;44.16
6524;BME280;3295;38.928;-77.052;2023-02-11T01:33:14;101449.69;;;13.00;44.71
6524;BME280;3295;38.928;-77.052;2023-02-11T01:35:43;101445.53;;;13.02;44.67
6524;BME280;3295;38.928;-77.052;2023-02-11T01:38:16;101446.78;;;12.92;44.62
6524;BME280;3295;38.928;-77.052;2023-02-11T01:40:50;101425.94;;;12.85;45.31
6524;BME280;3295;38.928;-77.052;2023-02-11T01:43:18;101404.78;;;12.89;44.59
6524;BME280;3295;38.928;-77.052;2023-02-11T01:48:42;101432.09;;;13.06;45.06
6524;BME280;3295;38.928;-77.052;2023-02-11T01:51:13;101438.56;;;12.99;45.10
6524;BME280;3295;38.928;-77.052;2023-02-11T01:53:43;101436.09;;;13.01;44.71
6524;BME280;3295;38.928;-77.052;2023-02-11T01:56:34;101445.84;;;13.08;44.63
6524;BME280;3295;38.928;-77.052;2023-02-11T01:59:25;101451.13;;;13.11;44.99
6524;BME280;3295;38.928;-77.052;2023-02-11T02:01:57;101435.88;;;13.14;44.90
6524;BME280;3295;38.928;-77.052;2023-02-11T02:04:29;101431.13;;;13.04;44.66
6524;BME280;3295;38.928;-77.052;2023-02-11T02:07:03;101426.72;;;12.84;45.12
6524;BME280;3295;38.928;-77.052;2023-02-11T02:09:35;101426.50;;;12.79;45.45
6524;BME280;3295;38.928;-77.052;2023-02-11T02:12:06;101420.69;;;12.65;46.13
6524;BME280;3295;38.928;-77.052;2023-02-11T02:14:37;101422.09;;;12.76;45.62
6524;BME280;3295;38.928;-77.052;2023-02-11T02:17:06;101413.44;;;12.74;45.80
6524;BME280;3295;38.928;-77.052;2023-02-11T02:20:08;101409.66;;;12.66;45.61
6524;BME280;3295;38.928;-77.052;2023-02-11T02:23:11;101405.41;;;12.67;45.60
6524;BME280;3295;38.928;-77.052;2023-02-11T02:26:09;101416.78;;;12.56;45.92
6524;BME280;3295;38.928;-77.052;2023-02-11T02:32:12;101406.09;;;12.80;44.95
6524;BME280;3295;38.928;-77.052;2023-02-11T02:34:48;101379.84;;;12.85;44.94
6524;BME280;3295;38.928;-77.052;2023-02-11T02:37:20;101380.66;;;12.84;45.03
6524;BME280;3295;38.928;-77.052;2023-02-11T02:39:51;101384.94;;;12.67;44.88
6524;BME280;3295;38.928;-77.052;2023-02-11T02:42:19;101395.28;;;12.52;45.22
6524;BME280;3295;38.928;-77.052;2023-02-11T02:44:48;101387.97;;;12.60;44.89
6524;BME280;3295;38.928;-77.052;2023-02-11T02:47:18;101402.94;;;12.68;44.72
6524;BME280;3295;38.928;-77.052;2023-02-11T02:49:46;101414.78;;;12.50;44.59
6524;BME280;3295;38.928;-77.052;2023-02-11T02:52:20;101424.97;;;12.16;45.20
6524;BME280;3295;38.928;-77.052;2023-02-11T02:55:06;101418.94;;;12.48;44.83
6524;BME280;3295;38.928;-77.052;2023-02-11T02:57:43;101417.44;;;12.52;44.96
6524;BME280;3295;38.928;-77.052;2023-02-11T03:00:21;101406.38;;;12.69;44.85
6524;BME280;3295;38.928;-77.052;2023-02-11T03:03:02;101393.94;;;12.76;44.47
6524;BME280;3295;38.928;-77.052;2023-02-11T03:05:39;101397.09;;;12.71;44.31
6524;BME280;3295;38.928;-77.052;2023-02-11T03:08:14;101388.81;;;12.76;44.57
6524;BME280;3295;38.928;-77.052;2023-02-11T03:10:45;101380.50;;;12.80;44.29
6524;BME280;3295;38.928;-77.052;2023-02-11T03:13:14;101384.00;;;12.82;44.15
6524;BME280;3295;38.928;-77.052;2023-02-11T03:15:44;101381.72;;;12.71;44.42
6524;BME280;3295;38.928;-77.052;2023-02-11T03:18:17;101360.06;;;12.64;44.31
6524;BME280;3295;38.928;-77.052;2023-02-11T03:20:49;101362.53;;;12.63;44.41
6524;BME280;3295;38.928;-77.052;2023-02-11T03:23:20;101359.19;;;12.64;44.55
6524;BME280;3295;38.928;-77.052;2023-02-11T03:25:54;101339.44;;;12.61;44.36
6524;BME280;3295;38.928;-77.052;2023-02-11T03:28:28;101338.75;;;12.30;44.89
6524;BME280;3295;38.928;-77.052;2023-02-11T03:31:05;101333.75;;;12.33;44.65
6524;BME280;3295;38.928;-77.052;2023-02-11T03:33:41;101337.28;;;12.19;44.93
6524;BME280;3295;38.928;-77.052;2023-02-11T03:36:18;101357.75;;;12.19;44.98
6524;BME280;3295;38.928;-77.052;2023-02-11T03:38:50;101353.75;;;12.24;45.25
6524;BME280;3295;38.928;-77.052;2023-02-11T03:41:22;101360.13;;;12.32;44.98
6524;BME280;3295;38.928;-77.052;2023-02-11T03:43:53;101355.59;;;12.26;45.46
6524;BME280;3295;38.928;-77.052;2023-02-11T03:46:27;101365.56;;;12.38;45.12
6524;BME280;3295;38.928;-77.052;2023-02-11T03:49:02;101379.59;;;12.28;44.76
6524;BME280;3295;38.928;-77.052;2023-02-11T03:51:31;101374.47;;;12.28;45.02
6524;BME280;3295;38.928;-77.052;2023-02-11T03:54:03;101385.25;;;12.23;45.11
6524;BME280;3295;38.928;-77.052;2023-02-11T03:56:39;101383.72;;;12.42;45.11
6524;BME280;3295;38.928;-77.052;2023-02-11T03:59:08;101378.84;;;12.31;45.14
6524;BME280;3295;38.928;-77.052;2023-02-11T04:01:36;101400.94;;;12.46;44.83
6524;BME280;3295;38.928;-77.052;2023-02-11T04:04:06;101400.31;;;12.51;44.39
6524;BME280;3295;38.928;-77.052;2023-02-11T04:06:34;101398.81;;;12.54;44.58
6524;BME280;3295;38.928;-77.052;2023-02-11T04:09:02;101392.31;;;12.44;44.49
6524;BME280;3295;38.928;-77.052;2023-02-11T04:11:30;101398.63;;;12.51;44.48
6524;BME280;3295;38.928;-77.052;2023-02-11T04:13:58;101412.38;;;12.53;44.36
6524;BME280;3295;38.928;-77.052;2023-02-11T04:16:26;101409.84;;;12.53;43.89
6524;BME280;3295;38.928;-77.052;2023-02-11T04:18:55;101414.63;;;12.47;44.69
6524;BME280;3295;38.928;-77.052;2023-02-11T04:21:24;101427.28;;;12.28;44.59
6524;BME280;3295;38.928;-77.052;2023-02-11T04:23:52;101431.44;;;12.26;44.39
6524;BME280;3295;38.928;-77.052;2023-02-11T04:26:20;101425.69;;;12.14;44.21
6524;BME280;3295;38.928;-77.052;2023-02-11T04:28:48;101425.69;;;12.14;44.55
6524;BME280;3295;38.928;-77.052;2023-02-11T04:31:16;101426.97;;;12.22;44.30
6524;BME280;3295;38.928;-77.052;2023-02-11T04:33:44;101432.78;;;12.35;44.10
6524;BME280;3295;38.928;-77.052;2023-02-11T04:36:12;101417.84;;;12.43;43.82
6524;BME280;3295;38.928;-77.052;2023-02-11T04:38:41;101416.19;;;12.43;44.11
6524;BME280;3295;38.928;-77.052;2023-02-11T04:41:09;101423.91;;;12.45;43.59
6524;BME280;3295;38.928;-77.052;2023-02-11T04:43:37;101432.78;;;12.35;44.07
6524;BME280;3295;38.928;-77.052;2023-02-11T04:46:05;101435.50;;;12.38;44.24
6524;BME280;3295;38.928;-77.052;2023-02-11T04:48:33;101428.53;;;12.52;43.46
6524;BME280;3295;38.928;-77.052;2023-02-11T04:51:01;101432.16;;;12.56;43.74
6524;BME280;3295;38.928;-77.052;2023-02-11T04:53:29;101430.78;;;12.46;43.63
6524;BME280;3295;38.928;-77.052;2023-02-11T04:55:59;101433.91;;;12.24;43.88
6524;BME280;3295;38.928;-77.052;2023-02-11T04:58:27;101443.91;;;12.36;43.64
6524;BME280;3295;38.928;-77.052;2023-02-11T05:00:55;101435.75;;;12.27;43.87
6524;BME280;3295;38.928;-77.052;2023-02-11T05:03:22;101437.09;;;12.36;43.40
6524;BME280;3295;38.928;-77.052;2023-02-11T05:05:50;101430.94;;;12.17;43.92
6524;BME280;3295;38.928;-77.052;2023-02-11T05:08:18;101437.34;;;12.08;44.30
6524;BME280;3295;38.928;-77.052;2023-02-11T05:10:46;101439.38;;;12.14;43.98
6524;BME280;3295;38.928;-77.052;2023-02-11T05:13:16;101436.22;;;12.20;44.23
6524;BME280;3295;38.928;-77.052;2023-02-11T05:15:44;101437.44;;;12.26;43.90
6524;BME280;3295;38.928;-77.052;2023-02-11T05:18:11;101449.66;;;12.32;43.51
6524;BME280;3295;38.928;-77.052;2023-02-11T05:20:40;101452.38;;;12.35;43.67
6524;BME280;3295;38.928;-77.052;2023-02-11T05:23:08;101450.63;;;12.34;43.60
6524;BME280;3295;38.928;-77.052;2023-02-11T05:25:36;101438.94;;;12.39;43.42
6524;BME280;3295;38.928;-77.052;2023-02-11T05:28:05;101430.31;;;12.37;43.19
6524;BME280;3295;38.928;-77.052;2023-02-11T05:30:34;101446.28;;;12.17;43.52
6524;BME280;3295;38.928;-77.052;2023-02-11T05:33:02;101448.13;;;12.35;43.03
6524;BME280;3295;38.928;-77.052;2023-02-11T05:35:30;101442.31;;;12.38;43.19
6524;BME280;3295;38.928;-77.052;2023-02-11T05:37:58;101437.19;;;12.38;43.05
6524;BME280;3295;38.928;-77.052;2023-02-11T05:40:26;101455.66;;;12.32;43.14
6524;BME280;3295;38.928;-77.052;2023-02-11T05:42:54;101452.06;;;12.29;43.18
6524;BME280;3295;38.928;-77.052;2023-02-11T05:45:22;101443.69;;;12.15;43.28
6524;BME280;3295;38.928;-77.052;2023-02-11T05:47:51;101446.28;;;12.17;43.11
6524;BME280;3295;38.928;-77.052;2023-02-11T05:50:19;101452.94;;;12.13;43.48
6524;BME280;3295;38.928;-77.052;2023-02-11T05:52:47;101446.63;;;12.23;43.41
6524;BME280;3295;38.928;-77.052;2023-02-11T05:55:15;101453.81;;;12.14;42.63
6524;BME280;3295;38.928;-77.052;2023-02-11T05:57:43;101447.94;;;11.84;43.29
6524;BME280;3295;38.928;-77.052;2023-02-11T06:00:12;101443.28;;;11.77;43.75
6524;BME280;3295;38.928;-77.052;2023-02-11T06:02:41;101440.84;;;11.94;43.43
6524;BME280;3295;38.928;-77.052;2023-02-11T06:05:10;101429.34;;;11.86;43.63
6524;BME280;3295;38.928;-77.052;2023-02-11T06:07:38;101419.06;;;11.70;42.97
6524;BME280;3295;38.928;-77.052;2023-02-11T06:10:07;101429.66;;;11.92;43.08
6524;BME280;3295;38.928;-77.052;2023-02-11T06:12:35;101424.72;;;11.95;42.82
6524;BME280;3295;38.928;-77.052;2023-02-11T06:15:04;101435.09;;;11.82;42.91
6524;BME280;3295;38.928;-77.052;2023-02-11T06:17:32;101435.00;;;11.81;43.03
6524;BME280;3295;38.928;-77.052;2023-02-11T06:20:02;101441.69;;;11.79;42.72
6524;BME280;3295;38.928;-77.052;2023-02-11T06:22:31;101436.28;;;11.58;42.43
6524;BME280;3295;38.928;-77.052;2023-02-11T06:24:59;101436.13;;;11.55;43.02
6524;BME280;3295;38.928;-77.052;2023-02-11T06:27:27;101434.22;;;11.67;43.16
6524;BME280;3295;38.928;-77.052;2023-02-11T06:29:55;101437.28;;;11.76;42.79
6524;BME280;3295;38.928;-77.052;2023-02-11T06:32:23;101434.03;;;11.79;42.57
6524;BME280;3295;38.928;-77.052;2023-02-11T06:34:51;101443.72;;;11.84;42.64
6524;BME280;3295;38.928;-77.052;2023-02-11T06:37:19;101436.53;;;11.93;42.42
6524;BME280;3295;38.928;-77.052;2023-02-11T06:39:48;101443.38;;;11.78;42.58
6524;BME280;3295;38.928;-77.052;2023-02-11T06:42:16;101432.19;;;11.76;42.70
6524;BME280;3295;38.928;-77.052;2023-02-11T06:44:44;101426.38;;;11.64;42.87
6524;BME280;3295;38.928;-77.052;2023-02-11T06:47:12;101438.66;;;11.55;42.73
6524;BME280;3295;38.928;-77.052;2023-02-11T06:49:40;101455.94;;;11.59;42.87
6524;BME280;3295;38.928;-77.052;2023-02-11T06:52:09;101463.53;;;11.43;42.69
6524;BME280;3295;38.928;-77.052;2023-02-11T06:54:37;101467.84;;;11.44;43.28
6524;BME280;3295;38.928;-77.052;2023-02-11T06:57:06;101481.75;;;11.49;42.74
6524;BME280;3295;38.928;-77.052;2023-02-11T06:59:34;101469.03;;;11.34;42.80
6524;BME280;3295;38.928;-77.052;2023-02-11T07:02:02;101485.72;;;11.44;43.12
6524;BME280;3295;38.928;-77.052;2023-02-11T07:04:30;101472.66;;;11.54;42.78
6524;BME280;3295;38.928;-77.052;2023-02-11T07:06:58;101483.94;;;11.57;42.55
6524;BME280;3295;38.928;-77.052;2023-02-11T07:09:26;101480.50;;;11.57;42.46
6524;BME280;3295;38.928;-77.052;2023-02-11T07:11:54;101475.72;;;11.63;42.52
6524;BME280;3295;38.928;-77.052;2023-02-11T07:14:23;101476.75;;;11.35;42.62
6524;BME280;3295;38.928;-77.052;2023-02-11T07:16:51;101471.88;;;11.55;42.37
6524;BME280;3295;38.928;-77.052;2023-02-11T07:19:19;101485.25;;;11.51;42.32
6524;BME280;3295;38.928;-77.052;2023-02-11T07:21:47;101481.03;;;11.51;41.67
6524;BME280;3295;38.928;-77.052;2023-02-11T07:24:15;101485.81;;;11.45;42.17
6524;BME280;3295;38.928;-77.052;2023-02-11T07:26:43;101489.78;;;11.25;42.29
6524;BME280;3295;38.928;-77.052;2023-02-11T07:29:11;101489.88;;;11.42;41.81
6524;BME280;3295;38.928;-77.052;2023-02-11T07:31:41;101515.84;;;11.34;42.60
6524;BME280;3295;38.928;-77.052;2023-02-11T07:34:09;101512.06;;;11.43;41.91
6524;BME280;3295;38.928;-77.052;2023-02-11T07:36:37;101504.59;;;11.46;41.90
6524;BME280;3295;38.928;-77.052;2023-02-11T07:39:05;101512.75;;;11.55;41.46
6524;BME280;3295;38.928;-77.052;2023-02-11T07:41:33;101511.38;;;11.30;41.77
6524;BME280;3295;38.928;-77.052;2023-02-11T07:44:02;101505.19;;;11.27;41.70
6524;BME280;3295;38.928;-77.052;2023-02-11T07:46:30;101494.63;;;11.35;41.72
6524;BME280;3295;38.928;-77.052;2023-02-11T07:48:59;101499.41;;;11.29;41.68
6524;BME280;3295;38.928;-77.052;2023-02-11T07:51:28;101502.22;;;11.04;42.39
6524;BME280;3295;38.928;-77.052;2023-02-11T07:53:58;101515.00;;;11.19;42.81
6524;BME280;3295;38.928;-77.052;2023-02-11T07:56:26;101514.53;;;11.12;43.00
6524;BME280;3295;38.928;-77.052;2023-02-11T07:58:58;101505.91;;;11.24;42.79
6524;BME280;3295;38.928;-77.052;2023-02-11T08:01:26;101516.66;;;11.33;43.00
6524;BME280;3295;38.928;-77.052;2023-02-11T08:03:55;101522.09;;;11.25;43.58
6524;BME280;3295;38.928;-77.052;2023-02-11T08:06:28;101528.19;;;11.12;43.49
6524;BME280;3295;38.928;-77.052;2023-02-11T08:08:56;101534.06;;;10.96;43.42
6524;BME280;3295;38.928;-77.052;2023-02-11T08:11:26;101543.00;;;10.75;43.87
6524;BME280;3295;38.928;-77.052;2023-02-11T08:13:55;101529.66;;;10.94;43.70
6524;BME280;3295;38.928;-77.052;2023-02-11T08:16:25;101537.78;;;11.01;43.32
6524;BME280;3295;38.928;-77.052;2023-02-11T08:18:55;101539.44;;;11.01;42.87
6524;BME280;3295;38.928;-77.052;2023-02-11T08:21:25;101534.94;;;10.97;42.88
6524;BME280;3295;38.928;-77.052;2023-02-11T08:23:53;101529.50;;;10.91;43.21
6524;BME280;3295;38.928;-77.052;2023-02-11T08:26:22;101528.53;;;11.03;42.71
6524;BME280;3295;38.928;-77.052;2023-02-11T08:28:52;101535.91;;;10.99;43.11
6524;BME280;3295;38.928;-77.052;2023-02-11T08:31:22;101528.59;;;10.76;42.72
6524;BME280;3295;38.928;-77.052;2023-02-11T08:33:51;101521.19;;;10.65;43.03
6524;BME280;3295;38.928;-77.052;2023-02-11T08:36:21;101522.59;;;10.75;43.31
6524;BME280;3295;38.928;-77.052;2023-02-11T08:38:52;101517.13;;;10.69;43.19
6524;BME280;3295;38.928;-77.052;2023-02-11T08:41:20;101525.94;;;10.74;42.88
6524;BME280;3295;38.928;-77.052;2023-02-11T08:43:48;101518.88;;;10.70;42.25
6524;BME280;3295;38.928;-77.052;2023-02-11T08:46:17;101516.91;;;10.79;42.16
6524;BME280;3295;38.928;-77.052;2023-02-11T08:48:46;101519.66;;;10.69;42.28
6524;BME280;3295;38.928;-77.052;2023-02-11T08:51:16;101517.81;;;10.66;42.43
6524;BME280;3295;38.928;-77.052;2023-02-11T08:53:44;101547.53;;;10.66;42.02
6524;BME280;3295;38.928;-77.052;2023-02-11T08:56:15;101548.06;;;10.60;41.95
6524;BME280;3295;38.928;-77.052;2023-02-11T08:58:45;101540.66;;;10.50;41.77
6524;BME280;3295;38.928;-77.052;2023-02-11T09:01:14;101534.22;;;10.29;42.32
6524;BME280;3295;38.928;-77.052;2023-02-11T09:03:43;101531.50;;;10.13;41.93
6524;BME280;3295;38.928;-77.052;2023-02-11T09:06:12;101550.53;;;10.05;42.64
6524;BME280;3295;38.928;-77.052;2023-02-11T09:08:41;101543.56;;;10.02;42.58
6524;BME280;3295;38.928;-77.052;2023-02-11T09:11:10;101554.19;;;9.95;42.55
6524;BME280;3295;38.928;-77.052;2023-02-11T09:13:40;101552.50;;;9.95;43.02
6524;BME280;3295;38.928;-77.052;2023-02-11T09:16:12;101566.81;;;9.80;42.72
6524;BME280;3295;38.928;-77.052;2023-02-11T09:18:42;101582.38;;;9.72;43.29
6524;BME280;3295;38.928;-77.052;2023-02-11T09:21:11;101571.50;;;9.74;43.23
6524;BME280;3295;38.928;-77.052;2023-02-11T09:23:39;101578.56;;;9.78;43.20
6524;BME280;3295;38.928;-77.052;2023-02-11T09:26:11;101577.22;;;9.83;42.70
6524;BME280;3295;38.928;-77.052;2023-02-11T09:28:41;101591.31;;;9.91;42.25
6524;BME280;3295;38.928;-77.052;2023-02-11T09:31:10;101601.81;;;9.70;42.54
6524;BME280;3295;38.928;-77.052;2023-02-11T09:33:39;101603.63;;;9.72;42.91
6524;BME280;3295;38.928;-77.052;2023-02-11T09:36:13;101624.63;;;9.68;42.69
6524;BME280;3295;38.928;-77.052;2023-02-11T09:38:41;101622.97;;;9.69;42.58
6524;BME280;3295;38.928;-77.052;2023-02-11T09:41:32;101628.00;;;9.42;43.49
6524;BME280;3295;38.928;-77.052;2023-02-11T09:44:06;101637.28;;;9.29;43.24
6524;BME280;3295;38.928;-77.052;2023-02-11T09:46:38;101624.72;;;9.32;43.23
6524;BME280;3295;38.928;-77.052;2023-02-11T09:49:15;101636.13;;;9.50;43.18
6524;BME280;3295;38.928;-77.052;2023-02-11T09:51:47;101633.91;;;9.30;42.63
6524;BME280;3295;38.928;-77.052;2023-02-11T09:54:19;101632.59;;;9.48;42.99
6524;BME280;3295;38.928;-77.052;2023-02-11T09:56:49;101635.56;;;9.54;42.60
6524;BME280;3295;38.928;-77.052;2023-02-11T09:59:19;101642.09;;;8.76;43.07
6524;BME280;3295;38.928;-77.052;2023-02-11T10:01:50;101637.50;;;8.95;43.34
6524;BME280;3295;38.928;-77.052;2023-02-11T10:04:35;101638.19;;;9.17;43.21
6524;BME280;3295;38.928;-77.052;2023-02-11T10:07:16;101646.03;;;9.20;42.89
6524;BME280;3295;38.928;-77.052;2023-02-11T10:09:59;101647.13;;;8.99;43.01
6524;BME280;3295;38.928;-77.052;2023-02-11T10:12:44;101670.44;;;9.05;43.02
6524;BME280;3295;38.928;-77.052;2023-02-11T10:15:23;101670.88;;;9.11;42.77
6524;BME280;3295;38.928;-77.052;2023-02-11T10:18:21;101683.94;;;8.68;43.39
6524;BME280;3295;38.928;-77.052;2023-02-11T10:21:06;101694.88;;;8.67;43.72
6524;BME280;3295;38.928;-77.052;2023-02-11T10:23:41;101694.63;;;8.87;43.29
6524;BME280;3295;38.928;-77.052;2023-02-11T10:26:12;101690.44;;;8.76;44.28
6524;BME280;3295;38.928;-77.052;2023-02-11T10:28:45;101710.31;;;8.93;45.03
6524;BME280;3295;38.928;-77.052;2023-02-11T10:31:17;101692.16;;;8.88;43.35
6524;BME280;3295;38.928;-77.052;2023-02-11T10:33:49;101695.50;;;8.87;43.41
6524;BME280;3295;38.928;-77.052;2023-02-11T10:36:18;101704.06;;;9.13;43.17
6524;BME280;3295;38.928;-77.052;2023-02-11T10:38:49;101702.50;;;9.15;43.12
6524;BME280;3295;38.928;-77.052;2023-02-11T10:41:20;101707.06;;;9.07;43.06
6524;BME280;3295;38.928;-77.052;2023-02-11T10:43:49;101717.81;;;8.91;43.00
6524;BME280;3295;38.928;-77.052;2023-02-11T10:46:23;101725.41;;;9.03;43.41
6524;BME280;3295;38.928;-77.052;2023-02-11T10:48:53;101726.41;;;9.05;43.34
6524;BME280;3295;38.928;-77.052;2023-02-11T10:51:22;101734.97;;;8.94;42.82
6524;BME280;3295;38.928;-77.052;2023-02-11T10:54:09;101742.81;;;8.97;43.42
6524;BME280;3295;38.928;-77.052;2023-02-11T10:56:44;101731.75;;;8.97;42.60
6524;BME280;3295;38.928;-77.052;2023-02-11T10:59:26;101719.88;;;8.72;42.98
6524;BME280;3295;38.928;-77.052;2023-02-11T11:01:57;101729.16;;;8.72;42.66
6524;BME280;3295;38.928;-77.052;2023-02-11T11:04:36;101739.75;;;8.78;42.59
6524;BME280;3295;38.928;-77.052;2023-02-11T11:07:17;101736.88;;;8.62;42.60
6524;BME280;3295;38.928;-77.052;2023-02-11T11:09:49;101744.97;;;8.68;42.36
6524;BME280;3295;38.928;-77.052;2023-02-11T11:12:32;101755.25;;;8.69;42.56
6524;BME280;3295;38.928;-77.052;2023-02-11T11:15:13;101765.22;;;8.43;42.71
6524;BME280;3295;38.928;-77.052;2023-02-11T11:17:45;101782.97;;;8.31;42.89
6524;BME280;3295;38.928;-77.052;2023-02-11T11:20:21;101790.16;;;8.48;42.51
6524;BME280;3295;38.928;-77.052;2023-02-11T11:22:51;101803.66;;;8.47;42.51
6524;BME280;3295;38.928;-77.052;2023-02-11T11:25:23;101808.19;;;8.40;42.57
6524;BME280;3295;38.928;-77.052;2023-02-11T11:27:53;101798.03;;;8.51;42.35
6524;BME280;3295;38.928;-77.052;2023-02-11T11:30:33;101789.94;;;8.34;42.04
6524;BME280;3295;38.928;-77.052;2023-02-11T11:33:17;101775.59;;;8.46;42.08
6524;BME280;3295;38.928;-77.052;2023-02-11T11:35:56;101777.78;;;8.65;41.96
6524;BME280;3295;38.928;-77.052;2023-02-11T11:38:26;101761.22;;;8.70;42.07
6524;BME280;3295;38.928;-77.052;2023-02-11T11:41:16;101768.50;;;8.77;41.56
6524;BME280;3295;38.928;-77.052;2023-02-11T11:44:03;101798.81;;;8.74;41.35
6524;BME280;3295;38.928;-77.052;2023-02-11T11:46:33;101814.09;;;8.74;41.69
6524;BME280;3295;38.928;-77.052;2023-02-11T11:49:16;101834.97;;;8.70;41.66
6524;BME280;3295;38.928;-77.052;2023-02-11T11:51:53;101849.41;;;8.36;41.84
6524;BME280;3295;38.928;-77.052;2023-02-11T11:54:23;101853.81;;;8.38;41.53
6524;BME280;3295;38.928;-77.052;2023-02-11T11:56:58;101850.75;;;8.42;41.76
6524;BME280;3295;38.928;-77.052;2023-02-11T11:59:30;101846.38;;;8.18;42.13
6524;BME280;3295;38.928;-77.052;2023-02-11T12:02:12;101843.75;;;8.06;42.11
6524;BME280;3295;38.928;-77.052;2023-02-11T12:04:57;101860.25;;;8.33;41.96
6524;BME280;3295;38.928;-77.052;2023-02-11T12:07:42;101871.53;;;8.48;41.87
6524;BME280;3295;38.928;-77.052;2023-02-11T12:10:27;101877.84;;;8.53;41.36
6524;BME280;3295;38.928;-77.052;2023-02-11T12:13:19;101885.00;;;8.47;41.96
6524;BME280;3295;38.928;-77.052;2023-02-11T12:15:58;101886.22;;;8.41;42.09
6524;BME280;3295;38.928;-77.052;2023-02-11T12:18:43;101886.78;;;8.48;42.08
6524;BME280;3295;38.928;-77.052;2023-02-11T12:21:27;101880.31;;;8.30;41.87
6524;BME280;3295;38.928;-77.052;2023-02-11T12:24:13;101878.84;;;8.44;41.99
6524;BME280;3295;38.928;-77.052;2023-02-11T12:26:51;101882.47;;;8.47;41.98
6524;BME280;3295;38.928;-77.052;2023-02-11T12:29:29;101890.56;;;8.53;41.73
6524;BME280;3295;38.928;-77.052;2023-02-11T12:32:12;101898.56;;;8.03;42.75
6524;BME280;3295;38.928;-77.052;2023-02-11T12:34:59;101907.63;;;8.11;42.58
6524;BME280;3295;38.928;-77.052;2023-02-11T12:37:50;101932.03;;;8.09;42.98
6524;BME280;3295;38.928;-77.052;2023-02-11T12:40:31;101947.28;;;8.09;42.44
6524;BME280;3295;38.928;-77.052;2023-02-11T12:43:10;101955.50;;;8.16;42.46
6524;BME280;3295;38.928;-77.052;2023-02-11T12:45:55;101956.44;;;7.85;43.12
6524;BME280;3295;38.928;-77.052;2023-02-11T12:48:42;101952.75;;;7.81;42.81
6524;BME280;3295;38.928;-77.052;2023-02-11T12:51:21;101951.03;;;8.02;43.24
6524;BME280;3295;38.928;-77.052;2023-02-11T12:54:11;101952.34;;;8.09;43.07
6524;BME280;3295;38.928;-77.052;2023-02-11T12:56:45;101954.25;;;8.11;42.82
6524;BME280;3295;38.928;-77.052;2023-02-11T12:59:24;101967.25;;;8.26;42.84
6524;BME280;3295;38.928;-77.052;2023-02-11T13:01:57;101975.13;;;8.29;42.44
6524;BME280;3295;38.928;-77.052;2023-02-11T13:04:31;101964.91;;;8.39;42.01
6524;BME280;3295;38.928;-77.052;2023-02-11T13:07:03;101977.63;;;8.39;41.94
6524;BME280;3295;38.928;-77.052;2023-02-11T13:09:39;101987.53;;;8.36;42.08
6524;BME280;3295;38.928;-77.052;2023-02-11T13:12:12;101992.22;;;8.42;42.54
6524;BME280;3295;38.928;-77.052;2023-02-11T13:15:01;101993.75;;;8.40;41.97
6524;BME280;3295;38.928;-77.052;2023-02-11T13:17:33;102005.28;;;8.46;42.10
6524;BME280;3295;38.928;-77.052;2023-02-11T13:20:15;102011.91;;;8.44;42.15
6524;BME280;3295;38.928;-77.052;2023-02-11T13:22:49;102021.47;;;8.59;41.82
6524;BME280;3295;38.928;-77.052;2023-02-11T13:25:29;102033.59;;;8.51;41.87